Time;durP1;ratioP1;P1;durP2;ratioP2;P2;SDS_P1;SDS_P2;PMS_P1;PMS_P2;Temp;Humidity;BMP_temperature;BMP_pressure;BME280_temperature;BME280_humidity;BME280_pressure;Samples;Min_cycle;Max_cycle;Signal;HPM_P1;HPM_P2
2021/04/06 00:08:16;;;;;;;18.67;7.43;;;;;;;0.82;73.21;97336.77;468268;1196;103668;-42
2021/04/06 00:18:25;;;;;;;14.05;5.90;;;;;;;0.71;73.51;97354.76;469024;1196;103216;-40
2021/04/06 00:28:31;;;;;;;12.33;5.60;;;;;;;0.57;73.32;97343.55;468511;1196;104687;-41
2021/04/06 00:38:41;;;;;;;25.23;7.13;;;;;;;0.40;73.90;97368.30;468360;1196;103201;-40
2021/04/06 00:48:46;;;;;;;10.53;3.40;;;;;;;0.27;74.11;97375.08;468979;1196;103230;-40
2021/04/06 00:58:52;;;;;;;13.83;6.47;;;;;;;0.18;74.28;97378.03;469232;1196;103290;-42
2021/04/06 01:08:59;;;;;;;18.10;9.07;;;;;;;0.24;73.93;97385.07;468766;1196;103216;-40
2021/04/06 01:19:04;;;;;;;16.65;9.05;;;;;;;0.23;74.36;97363.44;470511;1162;103523;-41
2021/04/06 01:29:08;;;;;;;16.57;7.27;;;;;;;0.09;74.20;97377.41;468797;1196;103229;-40
2021/04/06 01:39:13;;;;;;;20.05;7.35;;;;;;;0.11;74.34;97379.80;468658;1196;104314;-41
2021/04/06 01:49:18;;;;;;;10.25;3.45;;;;;;;-0.06;73.90;97395.72;468679;1196;103674;-41
2021/04/06 01:59:30;;;;;;;11.27;3.77;;;;;;;-0.27;73.83;97400.19;468525;1196;103219;-41
2021/04/06 02:09:35;;;;;;;10.50;2.33;;;;;;;-0.38;74.41;97410.13;468800;1196;103551;-39
2021/04/06 02:19:41;;;;;;;8.25;3.45;;;;;;;-0.35;74.97;97414.94;470200;1195;103168;-40
2021/04/06 02:29:48;;;;;;;6.53;1.97;;;;;;;-0.41;75.01;97402.72;468359;1196;103587;-40
2021/04/06 02:39:54;;;;;;;8.20;2.20;;;;;;;-0.48;75.38;97398.45;468422;1196;103709;-40
2021/04/06 02:49:59;;;;;;;6.43;2.03;;;;;;;-0.52;75.38;97418.00;468305;1196;103162;-40
2021/04/06 03:00:04;;;;;;;9.15;2.15;;;;;;;-0.72;75.61;97403.07;468389;1196;103251;-41
2021/04/06 03:10:17;;;;;;;7.17;2.97;;;;;;;-0.89;76.01;97404.36;469288;1196;104618;-40
2021/04/06 03:20:23;;;;;;;8.15;2.20;;;;;;;-1.02;76.08;97412.01;468522;1196;103212;-41
2021/04/06 03:30:34;;;;;;;7.87;2.87;;;;;;;-1.09;76.30;97411.95;468765;1196;103197;-40
2021/04/06 03:40:40;;;;;;;9.20;2.60;;;;;;;-0.96;76.10;97419.84;468976;1196;103210;-40
2021/04/06 03:50:44;;;;;;;5.73;2.40;;;;;;;-0.99;76.12;97409.84;468367;1196;103216;-40
2021/04/06 04:00:49;;;;;;;10.20;3.20;;;;;;;-0.89;76.18;97411.34;468439;1196;103488;-40
2021/04/06 04:10:53;;;;;;;8.70;3.20;;;;;;;-0.91;75.98;97423.70;468436;1196;103566;-40
2021/04/06 04:20:58;;;;;;;7.87;2.80;;;;;;;-0.89;76.33;97424.31;468854;1196;103596;-41
2021/04/06 04:41:22;;;;;;;14.05;3.98;;;;;;;-0.84;76.16;97443.52;468273;1196;103229;-42
2021/04/06 04:51:26;;;;;;;9.60;3.80;;;;;;;-0.86;76.28;97439.50;468229;1196;103520;-39
2021/04/06 05:01:32;;;;;;;17.20;4.95;;;;;;;-0.69;76.17;97446.85;468567;1196;103182;-40
2021/04/06 05:11:36;;;;;;;16.25;4.80;;;;;;;-0.59;76.22;97472.48;468941;1196;103210;-40
2021/04/06 05:21:40;;;;;;;17.80;6.10;;;;;;;-0.55;76.65;97472.91;468442;1196;103213;-40
2021/04/06 05:31:44;;;;;;;19.05;7.50;;;;;;;-0.53;76.38;97495.09;468323;1196;103517;-41
2021/04/06 05:41:49;;;;;;;14.20;5.30;;;;;;;-0.44;76.40;97506.17;468845;1196;103223;-41
2021/04/06 05:51:54;;;;;;;15.87;5.13;;;;;;;-0.29;75.75;97493.89;468821;1196;103488;-40
2021/04/06 06:01:59;;;;;;;13.13;5.70;;;;;;;-0.36;75.89;97504.23;468990;1196;103569;-40
2021/04/06 06:12:03;;;;;;;16.67;4.93;;;;;;;-0.33;76.01;97514.24;468377;1196;103516;-42
2021/04/06 06:22:11;;;;;;;21.20;6.65;;;;;;;-0.21;75.55;97516.34;469079;1195;103555;-40
2021/04/06 06:32:18;;;;;;;15.67;5.20;;;;;;;0.01;75.54;97528.30;468230;1195;103229;-40
2021/04/06 06:42:26;;;;;;;10.57;4.70;;;;;;;-0.02;75.41;97520.86;468935;1195;103219;-40
2021/04/06 06:52:29;;;;;;;115.70;42.00;;;;;;;-0.01;75.30;97520.67;468627;1196;103261;-40
2021/04/06 07:02:33;;;;;;;30.27;11.27;;;;;;;0.12;75.07;97513.97;468752;1196;103222;-40
2021/04/06 07:12:37;;;;;;;15.33;6.87;;;;;;;0.32;75.03;97529.69;468381;1196;103849;-41
2021/04/06 07:22:42;;;;;;;10.93;6.20;;;;;;;0.42;74.88;97523.13;468110;1196;103239;-40
2021/04/06 07:32:48;;;;;;;15.17;7.13;;;;;;;1.11;74.26;97528.22;468187;1196;103507;-40
2021/04/06 07:42:54;;;;;;;18.50;7.00;;;;;;;1.20;73.91;97545.28;468966;1199;103148;-43
2021/04/06 07:53:25;;;;;;;17.60;6.10;;;;;;;1.30;73.24;97547.50;468756;1196;103235;-40
2021/04/06 08:04:06;;;;;;;14.53;5.17;;;;;;;1.40;72.75;97547.11;468565;1196;103219;-40
2021/04/06 08:14:13;;;;;;;10.90;5.00;;;;;;;1.40;72.80;97544.50;466856;1199;103815;-39
2021/04/06 08:34:54;;;;;;;18.70;8.70;;;;;;;1.41;72.52;97535.69;467275;1199;103472;-39
2021/04/06 08:44:58;;;;;;;23.20;9.47;;;;;;;1.96;72.03;97531.13;468448;1196;103597;-40
2021/04/06 08:55:11;;;;;;;25.17;11.87;;;;;;;2.14;71.68;97526.11;468580;1196;103271;-40
2021/04/06 09:05:17;;;;;;;20.67;8.23;;;;;;;2.63;71.31;97519.57;468510;1196;103565;-41
2021/04/06 09:15:26;;;;;;;15.87;7.87;;;;;;;2.99;70.52;97509.36;469060;1196;103552;-41
2021/04/06 09:25:30;;;;;;;13.53;6.73;;;;;;;4.20;70.54;97503.86;469248;1196;103603;-41
2021/04/06 09:35:35;;;;;;;15.40;6.60;;;;;;;5.19;69.11;97496.66;468491;1196;103254;-41
2021/04/06 09:45:39;;;;;;;12.75;4.75;;;;;;;4.94;66.63;97500.20;468451;1195;103523;-41
2021/04/06 09:55:47;;;;;;;11.77;3.70;;;;;;;5.62;64.91;97493.02;468685;1196;103491;-41
2021/04/06 10:06:04;;;;;;;12.65;3.45;;;;;;;4.83;63.00;97493.10;468864;1196;103197;-41
2021/04/06 10:16:13;;;;;;;8.00;3.20;;;;;;;5.31;63.27;97494.88;468616;1196;103501;-41
2021/04/06 10:26:20;;;;;;;10.17;4.23;;;;;;;5.10;62.11;97495.38;468765;1195;103246;-41
2021/04/06 10:36:24;;;;;;;8.10;3.20;;;;;;;4.81;60.84;97512.67;468663;1196;103210;-44
2021/04/06 10:46:28;;;;;;;6.60;2.63;;;;;;;4.63;59.25;97501.19;469205;1196;103497;-41
2021/04/06 10:56:40;;;;;;;5.30;2.10;;;;;;;4.80;59.49;97498.78;468653;1196;103592;-40
2021/04/06 11:06:46;;;;;;;13.70;4.75;;;;;;;4.68;59.11;97492.67;468406;1196;103277;-41
2021/04/06 11:16:51;;;;;;;11.23;3.57;;;;;;;4.74;58.51;97483.95;468312;1196;103236;-40
2021/04/06 11:26:57;;;;;;;6.05;3.20;;;;;;;4.87;58.59;97473.30;468875;1196;103215;-41
2021/04/06 11:37:02;;;;;;;10.63;5.00;;;;;;;5.58;55.82;97466.45;468568;1196;103219;-42
2021/04/06 11:47:07;;;;;;;9.10;3.77;;;;;;;5.79;54.00;97457.23;468214;1196;104614;-41
2021/04/06 11:57:11;;;;;;;6.30;2.47;;;;;;;5.42;52.20;97448.74;469001;1196;103497;-40
2021/04/06 12:07:16;;;;;;;12.47;5.53;;;;;;;5.26;52.29;97452.03;469025;1196;103577;-39
2021/04/06 12:17:21;;;;;;;11.70;5.20;;;;;;;5.25;51.98;97440.75;468482;1196;103216;-40
2021/04/06 12:27:25;;;;;;;5.33;2.63;;;;;;;5.93;48.54;97435.04;468349;1196;103579;-40
2021/04/06 12:47:48;;;;;;;4.48;2.55;;;;;;;5.72;47.85;97418.02;468110;1196;103604;-40
2021/04/06 12:57:53;;;;;;;9.60;4.70;;;;;;;5.75;48.48;97414.13;468228;1196;103136;-40
2021/04/06 13:07:58;;;;;;;10.33;5.70;;;;;;;5.45;49.97;97415.03;468314;1196;103172;-41
2021/04/06 13:18:02;;;;;;;8.93;4.83;;;;;;;5.68;48.86;97410.80;469310;1196;103562;-42
2021/04/06 13:28:07;;;;;;;10.80;4.47;;;;;;;5.83;49.65;97403.28;468850;1195;103593;-41
2021/04/06 13:38:11;;;;;;;8.07;4.83;;;;;;;5.25;49.02;97411.92;469206;1196;103261;-40
2021/04/06 13:48:15;;;;;;;14.90;8.57;;;;;;;5.03;49.39;97400.36;468282;1196;103219;-40
2021/04/06 13:58:20;;;;;;;8.45;4.00;;;;;;;5.75;49.57;97395.77;468882;1196;103213;-41
2021/04/06 14:08:24;;;;;;;6.93;3.60;;;;;;;5.52;47.33;97391.32;468453;1197;103232;-40
2021/04/06 14:18:32;;;;;;;5.27;3.03;;;;;;;4.80;47.52;97386.17;468361;1196;103248;-41
2021/04/06 14:28:37;;;;;;;7.43;3.53;;;;;;;5.20;43.79;97370.67;468730;1196;104636;-40
2021/04/06 14:38:42;;;;;;;12.90;3.97;;;;;;;5.34;46.29;97380.92;468573;1196;103208;-41
2021/04/06 14:48:49;;;;;;;5.20;2.80;;;;;;;4.63;45.66;97387.81;468581;1195;103225;-40
2021/04/06 14:58:56;;;;;;;7.30;2.60;;;;;;;4.50;47.64;97378.33;468650;1196;103219;-40
2021/04/06 15:09:01;;;;;;;6.37;2.73;;;;;;;4.96;46.60;97362.96;468894;1196;103155;-41
2021/04/06 15:19:05;;;;;;;8.00;3.13;;;;;;;5.33;45.75;97369.64;469398;1196;103337;-41
2021/04/06 15:29:10;;;;;;;9.13;3.80;;;;;;;5.69;45.98;97352.91;468253;1196;103578;-41
2021/04/06 15:39:14;;;;;;;10.27;5.13;;;;;;;5.65;45.89;97364.86;468606;1196;103240;-41
2021/04/06 15:49:20;;;;;;;7.13;3.17;;;;;;;5.19;43.26;97360.39;468368;1196;103562;-41
2021/04/06 15:59:26;;;;;;;6.23;3.00;;;;;;;4.92;44.64;97358.17;468363;1196;104282;-41
2021/04/06 16:09:31;;;;;;;6.57;3.77;;;;;;;4.54;44.18;97365.59;468468;1196;103501;-40
2021/04/06 16:19:54;;;;;;;10.00;4.77;;;;;;;4.16;44.84;97379.73;468607;1196;103497;-40
2021/04/06 16:29:59;;;;;;;8.17;3.30;;;;;;;3.67;46.10;97368.38;468775;1196;103517;-40
2021/04/06 16:40:04;;;;;;;8.73;5.37;;;;;;;3.44;46.20;97386.49;468887;1196;103159;-40
2021/04/06 16:50:10;;;;;;;11.65;5.60;;;;;;;3.25;47.61;97384.84;468695;1196;103561;-40
2021/04/06 17:00:16;;;;;;;11.50;4.87;;;;;;;3.05;48.15;97391.00;468339;1196;103239;-42
2021/04/06 17:10:23;;;;;;;15.23;6.30;;;;;;;2.85;48.92;97402.61;468231;1196;103226;-41
2021/04/06 17:20:31;;;;;;;18.43;8.00;;;;;;;2.55;49.48;97404.96;468275;1196;103219;-40
2021/04/06 17:30:39;;;;;;;33.90;11.70;;;;;;;2.46;50.18;97407.82;469124;1196;103590;-40
2021/04/06 17:40:44;;;;;;;25.85;12.25;;;;;;;2.32;51.22;97405.46;469066;1196;103294;-40
2021/04/06 17:50:52;;;;;;;51.80;17.60;;;;;;;2.10;51.52;97420.58;469048;1196;103210;-40
2021/04/06 18:00:58;;;;;;;55.10;17.77;;;;;;;1.71;52.09;97424.89;469219;1196;103225;-40
2021/04/06 18:11:03;;;;;;;59.30;17.80;;;;;;;1.43;52.65;97434.73;468363;1196;103222;-40
2021/04/06 18:21:08;;;;;;;106.25;36.90;;;;;;;1.42;53.42;97448.73;469025;1196;103599;-40
2021/04/06 18:31:12;;;;;;;82.33;30.67;;;;;;;1.26;53.49;97449.95;469099;1196;103494;-41
2021/04/06 18:41:18;;;;;;;64.17;26.00;;;;;;;1.15;54.24;97461.73;468830;1196;103261;-40
2021/04/06 18:51:26;;;;;;;57.17;20.27;;;;;;;0.86;54.33;97462.08;468441;1196;103219;-41
2021/04/06 19:01:30;;;;;;;41.00;15.33;;;;;;;0.88;55.09;97463.48;469259;1196;103216;-41
2021/04/06 19:11:36;;;;;;;51.03;19.23;;;;;;;0.87;55.43;97471.48;469009;1196;103335;-41
2021/04/06 19:21:42;;;;;;;44.37;17.60;;;;;;;0.79;55.54;97472.48;469033;1196;103307;-41
2021/04/06 19:31:46;;;;;;;44.97;15.17;;;;;;;0.57;56.39;97469.20;468733;1196;103869;-41
2021/04/06 19:41:51;;;;;;;44.63;17.97;;;;;;;0.44;56.37;97474.33;469312;1196;103152;-41
2021/04/06 19:51:55;;;;;;;56.73;21.67;;;;;;;0.42;56.80;97472.92;468777;1196;103494;-40
2021/04/06 20:02:00;;;;;;;38.95;15.65;;;;;;;0.18;57.39;97469.81;468529;1196;103213;-41
2021/04/06 20:12:06;;;;;;;37.70;15.60;;;;;;;0.21;57.76;97474.63;468458;1196;103182;-40
2021/04/06 20:22:15;;;;;;;62.90;23.07;;;;;;;0.27;57.99;97470.47;469125;1196;103559;-42
2021/04/06 20:32:19;;;;;;;44.10;18.95;;;;;;;0.17;58.12;97465.61;468595;1196;103546;-41
2021/04/06 20:42:24;;;;;;;45.37;17.40;;;;;;;0.08;58.52;97458.97;468899;1196;104989;-41
2021/04/06 20:52:28;;;;;;;46.90;18.70;;;;;;;-0.25;58.72;97453.55;468327;1196;103214;-41
2021/04/06 21:02:33;;;;;;;59.10;22.85;;;;;;;-0.42;59.29;97460.04;468715;1196;103628;-40
2021/04/06 21:12:37;;;;;;;61.73;25.03;;;;;;;-0.34;59.63;97444.31;468709;1196;103526;-41
2021/04/06 21:22:42;;;;;;;51.90;22.85;;;;;;;-0.33;60.30;97458.90;468751;1196;103219;-41
2021/04/06 21:32:48;;;;;;;41.33;18.27;;;;;;;-0.43;60.18;97459.23;468405;1196;104739;-40
2021/04/06 21:42:55;;;;;;;40.33;15.00;;;;;;;-0.50;60.49;97454.97;468673;1196;103609;-42
2021/04/06 21:53:00;;;;;;;31.27;14.27;;;;;;;-0.44;60.67;97459.43;468775;1196;103601;-42
2021/04/06 22:03:04;;;;;;;34.10;14.15;;;;;;;-0.69;61.04;97456.44;468389;1196;103342;-41
2021/04/06 22:13:09;;;;;;;29.23;13.27;;;;;;;-0.68;61.57;97447.66;468037;1196;103552;-40
2021/04/06 22:23:19;;;;;;;26.70;13.60;;;;;;;-0.63;61.65;97447.89;468277;1196;103507;-40
2021/04/06 22:33:24;;;;;;;38.60;13.80;;;;;;;-0.66;62.02;97443.08;468250;1196;103626;-40
2021/04/06 22:43:30;;;;;;;23.37;12.03;;;;;;;-0.88;62.21;97444.88;469021;1196;103251;-42
2021/04/06 22:53:36;;;;;;;31.90;12.65;;;;;;;-0.81;62.43;97437.15;468572;1196;104611;-41
2021/04/06 23:03:42;;;;;;;31.87;14.07;;;;;;;-0.92;62.64;97440.25;468585;1196;103223;-41
2021/04/06 23:13:46;;;;;;;25.25;14.55;;;;;;;-0.92;63.06;97435.87;468317;1196;103497;-42
2021/04/06 23:23:50;;;;;;;24.75;12.35;;;;;;;-0.84;62.82;97438.33;469116;1196;103256;-41
2021/04/06 23:33:55;;;;;;;29.50;14.17;;;;;;;-0.87;63.32;97437.90;468287;1196;103520;-41
2021/04/06 23:43:59;;;;;;;25.60;14.33;;;;;;;-1.21;63.54;97428.18;468062;1196;103302;-41
2021/04/06 23:54:03;;;;;;;28.10;13.53;;;;;;;-1.26;64.18;97429.54;468704;1196;103552;-41
